Frigiliana, Spain

1:18 PM CEST on August 25, 2016 (GMT +0200)
La Molineta | | Change Station

Elev 820 ft 36.78 °N, 3.90 °W | Updated 5 seconds ago

Clear
Clear
77.3 °F
Feels Like 79 °F
N
1.0
Wind Variable Wind from South
Gusts 13.0 mph

Today
High -- | Low -- °F
--% Chance of Precip.
Yesterday
High -- | Low -- °F
Precip. -- in
Pressure 30.04 in
Visibility -9999.0 miles
Clouds
Heat Index 79 °F
Dew Point 59 °F
Humidity 53%
Rainfall 0.00 in
Snow Depth Not available.
7:41 AM 8:53 PM
Waning Gibbous, 46% visible
METAR LEGA 251100Z 00000KT CAVOK 28/08 Q1017
Pressure 30.04 in
Visibility -9999.0 miles
Clouds
Heat Index 79 °F
Dew Point 59 °F
Humidity 53%
Rainfall 0.00 in
Snow Depth Not available.
7:41 AM 8:53 PM
Waning Gibbous, 46% visible
METAR LEGA 251100Z 00000KT CAVOK 28/08 Q1017

10-Day Weather Forecast

×

Almanac

Astronomy

Aug. 25, 2016 Rise Set
Actual Time
Civil Twilight
Nautical Twilight
Astronomical Twilight
Moon
Length of Visible Light
Length of Day
Tomorrow will be .
, % of the Moon is Illuminated

Today's Extremes

Country Highs Country Lows

Community

WunderPhotos

Upload Photos

1,934,822 photos uploaded!

WunderBlog® & News

Nearby

Air Quality

  Air Quality AQ Index Pollutant
Not available.

Snow Depth

Station Depth Elevation

Earthquake Activity

City Distance Mag. Time & Date
Minimum magnitude displayed is 2.5.

Coastal Water Temperatures

Place Temperature

Stations

Nearby Weather Stations

Station Location Temp. Windchill Dew Point Humidity Wind Precip. Elev Updated Type